createdAt,value
2023-07-28T00:04:10.463Z,33.9
2023-07-28T00:09:10.854Z,33.9
2023-07-28T00:14:11.096Z,33.9
2023-07-28T00:19:11.511Z,33.9
2023-07-28T00:24:11.769Z,33.9
2023-07-28T00:29:12.036Z,33.8
2023-07-28T00:34:12.432Z,33.8
2023-07-28T00:39:12.666Z,33.7
2023-07-28T00:44:12.959Z,33.7
2023-07-28T00:49:13.338Z,33.7
2023-07-28T00:54:13.568Z,33.7
2023-07-28T00:59:13.789Z,33.7
2023-07-28T01:04:14.045Z,33.7
2023-07-28T01:09:14.419Z,33.6
2023-07-28T01:14:14.672Z,33.6
2023-07-28T01:19:15.075Z,33.6
2023-07-28T01:24:15.338Z,33.6
2023-07-28T01:29:15.565Z,33.6
2023-07-28T01:34:15.793Z,33.6
2023-07-28T01:39:16.185Z,33.5
2023-07-28T01:44:16.561Z,33.5
2023-07-28T01:49:16.834Z,33.5
2023-07-28T01:54:17.043Z,33.4
2023-07-28T01:59:17.306Z,33.4
2023-07-28T02:04:17.572Z,33.4
2023-07-28T02:09:17.812Z,33.4
2023-07-28T02:14:18.019Z,33.4
2023-07-28T02:19:18.226Z,33.4
2023-07-28T02:24:18.477Z,33.3
2023-07-28T02:29:18.689Z,33.3
2023-07-28T02:34:18.894Z,33.3
2023-07-28T02:39:19.119Z,33.3
2023-07-28T02:44:19.524Z,33.2
2023-07-28T02:49:19.896Z,33.2
2023-07-28T02:54:20.118Z,33.2
2023-07-28T02:59:20.327Z,33.2
2023-07-28T03:04:20.571Z,33.2
2023-07-28T03:09:20.814Z,33.2
2023-07-28T03:14:21.193Z,33.2
2023-07-28T03:19:21.441Z,33.2
2023-07-28T03:24:21.659Z,33.1
2023-07-28T03:29:21.926Z,33.1
2023-07-28T03:34:22.157Z,33.1
2023-07-28T03:39:22.393Z,33.1
2023-07-28T03:44:22.612Z,33.1
2023-07-28T03:49:24.600Z,33.1
2023-07-28T03:54:26.461Z,33.1
2023-07-28T03:59:26.696Z,33.1
2023-07-28T04:04:28.544Z,33.1
2023-07-28T04:09:28.927Z,33
2023-07-28T04:14:29.185Z,33
2023-07-28T04:19:29.376Z,33
2023-07-28T04:24:29.566Z,33
2023-07-28T04:29:29.788Z,32.9
2023-07-28T04:34:31.686Z,32.9
2023-07-28T04:39:32.059Z,32.9
2023-07-28T04:44:32.244Z,32.9
2023-07-28T04:49:32.595Z,32.9
2023-07-28T04:54:32.835Z,32.9
2023-07-28T04:59:33.045Z,32.9
2023-07-28T05:04:33.278Z,32.9
2023-07-28T05:09:33.498Z,32.9
2023-07-28T05:14:33.722Z,32.8
2023-07-28T05:19:33.953Z,32.8
2023-07-28T05:24:35.855Z,32.8
2023-07-28T05:29:37.735Z,32.8
2023-07-28T05:34:39.603Z,32.8
2023-07-28T05:39:41.590Z,32.7
2023-07-28T05:44:43.635Z,32.7
2023-07-28T05:49:43.991Z,32.7
2023-07-28T05:54:45.857Z,32.7
2023-07-28T05:59:47.797Z,32.7
2023-07-28T06:04:49.760Z,32.7
2023-07-28T06:09:51.791Z,32.7
2023-07-28T06:14:52.033Z,32.7
2023-07-28T06:19:54.050Z,32.7
2023-07-28T06:24:54.389Z,32.6
2023-07-28T06:29:54.672Z,32.6
2023-07-28T06:34:54.903Z,32.6
2023-07-28T06:39:55.298Z,32.6
2023-07-28T06:44:55.480Z,32.6
2023-07-28T06:49:55.743Z,32.6
2023-07-28T06:54:57.584Z,32.6
2023-07-28T06:59:59.431Z,32.6
2023-07-28T07:05:01.437Z,32.6
2023-07-28T07:10:03.449Z,32.4
2023-07-28T07:15:05.320Z,32.2
2023-07-28T07:20:07.225Z,32.2
2023-07-28T07:25:09.080Z,32.2
2023-07-28T07:30:09.324Z,32.2
2023-07-28T07:35:11.386Z,32.2
2023-07-28T07:40:11.752Z,32.2
2023-07-28T07:45:12.118Z,32.2
2023-07-28T07:50:12.475Z,32.2
2023-07-28T07:55:13.073Z,32.2
2023-07-28T08:00:13.347Z,32.2
2023-07-28T08:05:13.768Z,32.1
2023-07-28T08:10:15.817Z,32.1
2023-07-28T08:15:17.682Z,32.1
2023-07-28T08:20:19.653Z,32.1
2023-07-28T08:25:21.698Z,32.1
2023-07-28T08:30:23.544Z,32.1
2023-07-28T08:35:23.973Z,32.1
2023-07-28T08:40:25.928Z,32.1
2023-07-28T08:45:27.855Z,32.1
2023-07-28T08:50:29.841Z,32.1
2023-07-28T08:55:30.634Z,32
2023-07-28T09:00:31.098Z,32
2023-07-28T09:05:31.370Z,32
2023-07-28T09:10:32.308Z,32
2023-07-28T09:15:34.138Z,32
2023-07-28T09:20:34.520Z,32
2023-07-28T09:25:34.717Z,32
2023-07-28T09:30:36.740Z,31.9
2023-07-28T09:35:38.603Z,31.9
2023-07-28T09:40:40.622Z,31.9
2023-07-28T09:45:42.487Z,31.9
2023-07-28T09:50:44.330Z,31.9
2023-07-28T09:55:46.217Z,31.9
2023-07-28T10:00:48.279Z,31.9
2023-07-28T10:05:50.279Z,31.9
2023-07-28T10:10:52.271Z,31.9
2023-07-28T10:15:54.309Z,31.9
2023-07-28T10:20:56.165Z,31.9
2023-07-28T10:25:58.036Z,31.9
2023-07-28T10:31:00.139Z,31.9
2023-07-28T10:36:01.982Z,31.9
2023-07-28T10:41:03.989Z,31.9
2023-07-28T10:46:05.890Z,31.8
2023-07-28T10:51:07.994Z,31.8
2023-07-28T10:56:10.784Z,31.8
2023-07-28T11:01:13.544Z,31.8
2023-07-28T11:06:15.574Z,31.8
2023-07-28T11:11:17.561Z,31.8
2023-07-28T11:16:19.566Z,31.8
2023-07-28T11:21:21.734Z,31.8
2023-07-28T11:26:23.572Z,31.8
2023-07-28T11:31:25.421Z,31.8
2023-07-28T11:36:27.550Z,31.8
2023-07-28T11:41:29.416Z,31.8
2023-07-28T11:46:31.304Z,31.8
2023-07-28T11:51:33.317Z,31.8
2023-07-28T11:56:35.560Z,31.8
2023-07-28T12:02:23.801Z,31.8
2023-07-28T12:07:26.114Z,31.7
2023-07-28T12:12:28.117Z,31.7
2023-07-28T12:34:11.658Z,31.7
2023-07-28T12:50:23.447Z,31.6
2023-07-28T12:55:25.430Z,31.6
2023-07-28T13:05:32.303Z,31.6
2023-07-28T13:15:39.378Z,31.6
2023-07-28T13:20:41.273Z,31.6
2023-07-28T13:25:43.254Z,31.6
2023-07-28T13:30:45.260Z,31.6
2023-07-28T13:35:47.273Z,31.6
2023-07-28T13:40:49.219Z,31.6
2023-07-28T13:45:51.188Z,31.6
2023-07-28T13:50:56.452Z,31.6
2023-07-28T13:55:58.666Z,31.6
2023-07-28T14:01:00.540Z,31.5
2023-07-28T14:06:02.446Z,31.5
2023-07-28T14:11:04.392Z,31.5
2023-07-28T14:16:06.211Z,31.5
2023-07-28T14:21:08.111Z,31.5
2023-07-28T14:26:09.919Z,31.5
2023-07-28T14:31:11.765Z,31.5
2023-07-28T14:36:13.632Z,31.5
2023-07-28T14:41:15.467Z,31.4
2023-07-28T14:46:17.351Z,31.5
2023-07-28T14:51:19.175Z,31.4
2023-07-28T14:56:20.970Z,31.5
2023-07-28T15:01:22.804Z,31.4
2023-07-28T15:06:24.626Z,31.4
2023-07-28T15:11:26.399Z,31.4
2023-07-28T15:16:28.204Z,31.4
2023-07-28T15:21:30.154Z,31.4
2023-07-28T15:26:31.923Z,31.4
2023-07-28T15:31:34.152Z,31.4
2023-07-28T15:36:36.141Z,31.4
2023-07-28T15:41:38.056Z,31.4
2023-07-28T15:46:39.969Z,31.4
2023-07-28T15:51:41.779Z,31.4
2023-07-28T15:56:43.566Z,31.4
2023-07-28T16:01:45.402Z,31.4
2023-07-28T16:06:47.258Z,31.4
2023-07-28T16:11:49.115Z,31.4
2023-07-28T16:16:50.896Z,31.4
2023-07-28T16:21:52.846Z,31.4
2023-07-28T16:26:54.643Z,31.3
2023-07-28T16:31:56.591Z,31.3
2023-07-28T16:36:58.426Z,31.3
2023-07-28T16:42:00.256Z,31.3
2023-07-28T16:47:02.048Z,31.3
2023-07-28T16:52:03.883Z,31.3
2023-07-28T16:57:05.681Z,31.3
2023-07-28T17:02:07.499Z,31.3
2023-07-28T17:07:09.328Z,31.3
2023-07-28T17:12:11.101Z,31.3
2023-07-28T17:17:13.020Z,31.3
2023-07-28T17:22:14.823Z,31.3
2023-07-28T17:27:16.608Z,31.2
2023-07-28T17:32:18.399Z,31.2
2023-07-28T17:37:20.223Z,31.2
2023-07-28T17:42:22.044Z,31.2
2023-07-28T17:47:23.851Z,31.2
2023-07-28T17:52:25.657Z,31.2
2023-07-28T17:57:27.436Z,31.2
2023-07-28T18:02:29.256Z,31.2
2023-07-28T18:07:31.064Z,31.2
2023-07-28T18:12:33.010Z,31.2
2023-07-28T18:17:34.828Z,31.2
2023-07-28T18:22:36.669Z,31.2
2023-07-28T18:27:38.477Z,31.2
2023-07-28T18:32:40.282Z,31.2
2023-07-28T18:37:42.126Z,31.2
2023-07-28T18:42:43.980Z,31.2
2023-07-28T18:47:45.810Z,31.2
2023-07-28T18:52:47.647Z,31.2
2023-07-28T18:57:49.439Z,31.2
2023-07-28T19:02:51.430Z,31.2
2023-07-28T19:07:53.294Z,31.1
2023-07-28T19:12:55.149Z,31.1
2023-07-28T19:17:57.117Z,31.1
2023-07-28T19:22:58.937Z,31.1
2023-07-28T19:28:00.997Z,31.1
2023-07-28T19:33:02.852Z,31.1
2023-07-28T19:38:04.677Z,31.1
2023-07-28T19:43:06.656Z,31.1
2023-07-28T19:48:08.474Z,31.1
2023-07-28T19:53:10.338Z,31.1
2023-07-28T19:58:12.142Z,31.1
2023-07-28T20:03:13.971Z,31.1
2023-07-28T20:08:15.810Z,31.1
2023-07-28T20:13:17.610Z,31.1
2023-07-28T20:18:19.452Z,31.1
2023-07-28T20:23:21.308Z,31.1
2023-07-28T20:28:23.104Z,31.1
2023-07-28T20:33:24.929Z,31.1
2023-07-28T20:38:26.878Z,31.1
2023-07-28T20:43:28.672Z,31.1
2023-07-28T20:48:30.434Z,31.1
2023-07-28T20:53:32.467Z,31.1
2023-07-28T20:58:34.438Z,31.1
2023-07-28T21:03:36.313Z,31.1
2023-07-28T21:08:38.190Z,31
2023-07-28T21:13:39.990Z,31
2023-07-28T21:18:41.785Z,31
2023-07-28T21:23:43.610Z,31
2023-07-28T21:28:45.415Z,31
2023-07-28T21:33:47.180Z,31
2023-07-28T21:38:48.967Z,31
2023-07-28T21:43:50.738Z,31
2023-07-28T21:48:52.502Z,31
2023-07-28T21:53:54.318Z,31
2023-07-28T21:58:56.142Z,30.9
2023-07-28T22:03:58.005Z,31
2023-07-28T22:08:59.932Z,30.9
2023-07-28T22:14:01.832Z,31
2023-07-28T22:19:03.828Z,30.9
2023-07-28T22:24:05.758Z,30.9
2023-07-28T22:29:07.619Z,30.9
2023-07-28T22:34:09.586Z,30.9
2023-07-28T22:39:11.460Z,30.9
2023-07-28T22:44:13.287Z,30.9
2023-07-28T22:49:15.159Z,30.9
2023-07-28T22:54:17.074Z,30.9
2023-07-28T22:59:18.930Z,30.9
2023-07-28T23:04:20.954Z,30.9
2023-07-28T23:09:22.872Z,30.9
2023-07-28T23:14:24.730Z,30.9
2023-07-28T23:19:26.572Z,30.9
2023-07-28T23:24:28.576Z,30.9
2023-07-28T23:29:30.426Z,30.9
2023-07-28T23:34:32.273Z,30.9
2023-07-28T23:39:34.131Z,30.9
2023-07-28T23:44:35.951Z,30.9
2023-07-28T23:49:37.767Z,30.9
2023-07-28T23:54:39.641Z,30.9
2023-07-28T23:59:41.485Z,30.9
